RYR9737 EIDW-UKBB
Flight info
| Callsign | RYR9737 |
|---|---|
| Flight time | N/A |
| Altitude | 33000 |
| Route | DEXEN2J DEXEN UY124 AMPIT L15 HON P155 SOMVA DCT RKN L980 HUTFI/N0463F350 L980 POLON M70 TOLPA/K0850F350 M70 SLV |
| Aircraft | B738/M-SDE2E3FGHIRWXY/LB1 |
Departure
| Time | 2026-05-06 11:21 |
|---|---|
| Airport | Dublin Airport (EIDW) |
Arrival
| Time | N/A |
|---|---|
| Airport | Boryspil International Airport (UKBB) |
| Time | Latitude | Longitude | Altitude | Speed | Heading |
|---|---|---|---|---|---|
| 2026-05-06 11:02 | 53.43010 | -6.24943 | 210 ft | 0 kts | 5° |
| 2026-05-06 11:06 | 53.43004 | -6.24944 | 210 ft | 4 kts | 4° |
| 2026-05-06 11:06 | 53.42977 | -6.24943 | 210 ft | 4 kts | 347° |
| 2026-05-06 11:07 | 53.42955 | -6.24927 | 215 ft | 4 kts | 311° |
| 2026-05-06 11:07 | 53.42947 | -6.24904 | 210 ft | 0 kts | 276° |
| 2026-05-06 11:15 | 53.42949 | -6.24941 | 213 ft | 8 kts | 276° |
| 2026-05-06 11:15 | 53.42955 | -6.25059 | 220 ft | 6 kts | 275° |
| 2026-05-06 11:15 | 53.42959 | -6.25129 | 210 ft | 6 kts | 275° |
| 2026-05-06 11:16 | 53.42963 | -6.25210 | 210 ft | 9 kts | 275° |
| 2026-05-06 11:16 | 53.42951 | -6.25312 | 213 ft | 10 kts | 260° |
| 2026-05-06 11:16 | 53.43007 | -6.25398 | 210 ft | 13 kts | 337° |
| 2026-05-06 11:16 | 53.43091 | -6.25458 | 214 ft | 12 kts | 336° |
| 2026-05-06 11:17 | 53.43171 | -6.25515 | 210 ft | 13 kts | 337° |
| 2026-05-06 11:17 | 53.43261 | -6.25579 | 210 ft | 15 kts | 337° |
| 2026-05-06 11:17 | 53.43357 | -6.25648 | 213 ft | 11 kts | 341° |
| 2026-05-06 11:17 | 53.43407 | -6.25579 | 210 ft | 12 kts | 86° |
| 2026-05-06 11:18 | 53.43401 | -6.25436 | 219 ft | 13 kts | 95° |
| 2026-05-06 11:18 | 53.43391 | -6.25253 | 213 ft | 18 kts | 95° |
| 2026-05-06 11:18 | 53.43379 | -6.25037 | 210 ft | 19 kts | 95° |
| 2026-05-06 11:18 | 53.43366 | -6.24811 | 213 ft | 20 kts | 95° |
| 2026-05-06 11:19 | 53.43362 | -6.24602 | 217 ft | 13 kts | 71° |
| 2026-05-06 11:19 | 53.43403 | -6.24561 | 216 ft | 0 kts | 5° |
| 2026-05-06 11:19 | 53.43404 | -6.24561 | 216 ft | 0 kts | 5° |
| 2026-05-06 11:19 | 53.43414 | -6.24560 | 213 ft | 4 kts | 5° |
| 2026-05-06 11:20 | 53.43471 | -6.24551 | 212 ft | 12 kts | 4° |
| 2026-05-06 11:20 | 53.43528 | -6.24639 | 216 ft | 12 kts | 275° |
| 2026-05-06 11:20 | 53.43549 | -6.25023 | 211 ft | 70 kts | 275° |
| 2026-05-06 11:20 | 53.43620 | -6.26300 | 211 ft | 146 kts | 275° |
| 2026-05-06 11:21 | 53.43730 | -6.28330 | 442 ft | 192 kts | 275° |
| 2026-05-06 11:21 | 53.43995 | -6.30638 | 1231 ft | 208 kts | 293° |
| 2026-05-06 11:21 | 53.44787 | -6.32641 | 2262 ft | 206 kts | 314° |
| 2026-05-06 11:21 | 53.45925 | -6.34275 | 2979 ft | 226 kts | 322° |
| 2026-05-06 11:22 | 53.47028 | -6.36140 | 4031 ft | 228 kts | 306° |
| 2026-05-06 11:22 | 53.48008 | -6.38445 | 4388 ft | 268 kts | 304° |
| 2026-05-06 11:22 | 53.49108 | -6.41093 | 5168 ft | 276 kts | 304° |
| 2026-05-06 11:22 | 53.50185 | -6.43686 | 6330 ft | 266 kts | 303° |
| 2026-05-06 11:23 | 53.51026 | -6.46399 | 7256 ft | 261 kts | 282° |
| 2026-05-06 11:23 | 53.51069 | -6.49440 | 7757 ft | 264 kts | 256° |
| 2026-05-06 11:23 | 53.50270 | -6.52206 | 8010 ft | 266 kts | 230° |
| 2026-05-06 11:23 | 53.48793 | -6.54060 | 8028 ft | 269 kts | 202° |
| 2026-05-06 11:24 | 53.46948 | -6.54559 | 8028 ft | 274 kts | 175° |
| 2026-05-06 11:24 | 53.45142 | -6.53559 | 8024 ft | 278 kts | 148° |
| 2026-05-06 11:24 | 53.43733 | -6.51340 | 8081 ft | 282 kts | 127° |
| 2026-05-06 11:24 | 53.42623 | -6.48596 | 8653 ft | 286 kts | 123° |
| 2026-05-06 11:25 | 53.41555 | -6.45784 | 9475 ft | 287 kts | 123° |
| 2026-05-06 11:25 | 53.40443 | -6.42912 | 10018 ft | 298 kts | 124° |
| 2026-05-06 11:25 | 53.39293 | -6.40007 | 10713 ft | 300 kts | 124° |
| 2026-05-06 11:25 | 53.38125 | -6.37084 | 11419 ft | 303 kts | 125° |
| 2026-05-06 11:26 | 53.37136 | -6.33952 | 12047 ft | 309 kts | 105° |
| 2026-05-06 11:26 | 53.36717 | -6.30400 | 12770 ft | 312 kts | 99° |
| 2026-05-06 11:26 | 53.36360 | -6.26845 | 13446 ft | 316 kts | 99° |
| 2026-05-06 11:26 | 53.35990 | -6.23138 | 14101 ft | 320 kts | 99° |
| 2026-05-06 11:27 | 53.35619 | -6.19494 | 14727 ft | 323 kts | 99° |
| 2026-05-06 11:27 | 53.35234 | -6.15775 | 15390 ft | 325 kts | 99° |
| 2026-05-06 11:27 | 53.34839 | -6.12023 | 16002 ft | 328 kts | 100° |
| 2026-05-06 11:27 | 53.34437 | -6.08246 | 16620 ft | 332 kts | 100° |
| 2026-05-06 11:28 | 53.34026 | -6.04428 | 17164 ft | 338 kts | 100° |
| 2026-05-06 11:28 | 53.33596 | -6.00449 | 17314 ft | 357 kts | 100° |
| 2026-05-06 11:28 | 53.33141 | -5.96271 | 17540 ft | 372 kts | 100° |
| 2026-05-06 11:28 | 53.32671 | -5.91970 | 18045 ft | 378 kts | 100° |
| 2026-05-06 11:29 | 53.32195 | -5.87629 | 18635 ft | 380 kts | 101° |
| 2026-05-06 11:29 | 53.31715 | -5.83269 | 19199 ft | 383 kts | 101° |
| 2026-05-06 11:29 | 53.31230 | -5.78872 | 19731 ft | 386 kts | 101° |
| 2026-05-06 11:29 | 53.30739 | -5.74445 | 20248 ft | 389 kts | 101° |
| 2026-05-06 11:30 | 53.30242 | -5.69974 | 20769 ft | 393 kts | 101° |
| 2026-05-06 11:30 | 53.29739 | -5.65466 | 21278 ft | 396 kts | 101° |
| 2026-05-06 11:30 | 53.29231 | -5.60923 | 21778 ft | 399 kts | 101° |
| 2026-05-06 11:30 | 53.28716 | -5.56340 | 22216 ft | 405 kts | 101° |
| 2026-05-06 11:31 | 53.28186 | -5.51638 | 22301 ft | 419 kts | 101° |
| 2026-05-06 11:31 | 53.27757 | -5.46816 | 22393 ft | 431 kts | 94° |
| 2026-05-06 11:31 | 53.27599 | -5.41745 | 22496 ft | 442 kts | 91° |
| 2026-05-06 11:31 | 53.27534 | -5.36608 | 23052 ft | 441 kts | 91° |
| 2026-05-06 11:32 | 53.27463 | -5.31492 | 23642 ft | 440 kts | 91° |
| 2026-05-06 11:32 | 53.27352 | -5.26378 | 24149 ft | 438 kts | 92° |
| 2026-05-06 11:32 | 53.27210 | -5.21281 | 24548 ft | 440 kts | 92° |
| 2026-05-06 11:32 | 53.27108 | -5.17898 | 24803 ft | 441 kts | 92° |
| 2026-05-06 11:33 | 53.26943 | -5.12759 | 25208 ft | 442 kts | 93° |